Terminal Aerodrome Forecast
Issued by NWS

Home | Current Version | Previous Version | Text Only | Print | Product List | Glossary On
Versions: 1 2 3 4 5 6 7 8 9 10 11 12 13 14 15 16
132
FTUS41 KPBZ 241724
TAFBVI
TAF
KBVI 241724Z 2418/2518 21012G24KT P6SM BKN050
     FM250300 18011KT P6SM SCT120 WS020/20040KT
     FM251000 18012G25KT 3SM -SHRA VCTS OVC050CB
     FM251600 23015G28KT P6SM OVC025=

USA.gov is the U.S. government's official web portal to all federal, state and local government web resources and services.